Time;durP1;ratioP1;P1;durP2;ratioP2;P2;SDS_P1;SDS_P2;PMS_P1;PMS_P2;Temp;Humidity;BMP_temperature;BMP_pressure;BME280_temperature;BME280_humidity;BME280_pressure;Samples;Min_cycle;Max_cycle;Signal;HPM_P1;HPM_P2
2022/09/21 00:01:32;;;;;;;;;10.67;10.67;;;;;16.00;53.13;102026.63;5072666;28;45461;-74
2022/09/21 00:04:00;;;;;;;;;10.25;9.50;;;;;15.92;53.40;102009.34;5054278;28;45404;-66
2022/09/21 00:06:27;;;;;;;;;10.00;8.00;;;;;15.97;53.15;102023.84;5061823;28;46184;-78
2022/09/21 00:08:54;;;;;;;;;15.25;11.00;;;;;15.93;52.93;102024.63;5066252;28;45106;-67
2022/09/21 00:11:23;;;;;;;;;10.25;9.00;;;;;15.95;52.90;102020.16;5070885;28;45358;-68
2022/09/21 00:13:53;;;;;;;;;10.00;10.00;;;;;15.97;52.75;102021.13;5061019;28;45220;-73
2022/09/21 00:16:18;;;;;;;;;9.75;9.75;;;;;15.81;53.03;102000.06;5065870;28;46220;-67
2022/09/21 00:18:43;;;;;;;;;10.33;9.00;;;;;15.95;52.98;102025.56;5068019;28;45259;-68
2022/09/21 00:21:12;;;;;;;;;10.50;10.50;;;;;15.96;53.03;102013.91;5070677;28;45369;-67
2022/09/21 00:23:38;;;;;;;;;9.67;9.67;;;;;15.97;52.70;102018.44;5068976;28;45445;-66
2022/09/21 00:26:16;;;;;;;;;9.00;9.00;;;;;15.94;52.80;102020.16;5061294;28;45247;-69
2022/09/21 00:28:42;;;;;;;;;9.67;8.67;;;;;15.91;52.89;102018.28;5063906;28;45465;-66
2022/09/21 00:31:11;;;;;;;;;12.67;8.67;;;;;15.97;52.93;102028.28;5068816;28;45544;-67
2022/09/21 00:33:37;;;;;;;;;6.00;6.00;;;;;15.97;52.56;102029.22;5069555;28;45440;-67
2022/09/21 00:36:29;;;;;;;;;11.00;9.33;;;;;15.93;52.92;102018.31;5067503;28;45358;-73
2022/09/21 00:38:57;;;;;;;;;6.33;6.00;;;;;15.98;52.89;102031.03;5057800;28;45322;-66
2022/09/21 00:41:24;;;;;;;;;9.33;7.00;;;;;15.98;52.47;102025.63;5068187;28;45059;-68
2022/09/21 00:44:18;;;;;;;;;7.33;6.33;;;;;15.78;52.81;101990.13;5068570;28;44958;-67
2022/09/21 00:46:45;;;;;;;;;8.33;8.00;;;;;15.84;52.98;102001.06;5063457;28;50575;-67
2022/09/21 00:49:11;;;;;;;;;4.00;4.00;;;;;15.95;52.43;102027.34;5066425;28;45242;-66
2022/09/21 00:51:37;;;;;;;;;7.00;6.67;;;;;15.93;52.58;102030.00;5068837;28;45126;-66
2022/09/21 00:54:15;;;;;;;;;9.00;7.33;;;;;15.78;52.46;102003.59;5069333;28;45368;-66
2022/09/21 00:56:43;;;;;;;;;6.67;5.33;;;;;15.64;53.00;101984.34;5066066;28;46111;-66
2022/09/21 00:59:09;;;;;;;;;7.00;4.00;;;;;15.76;52.57;102002.66;5066374;28;45432;-66
2022/09/21 01:01:37;;;;;;;;;6.00;6.00;;;;;15.89;52.63;102027.19;5066465;28;45325;-79
2022/09/21 01:04:04;;;;;;;;;5.67;5.67;;;;;15.91;52.73;102030.88;5069248;28;45002;-75
2022/09/21 01:06:32;;;;;;;;;6.00;4.67;;;;;15.90;52.75;102029.03;5068571;28;45247;-67
2022/09/21 01:08:58;;;;;;;;;8.67;6.00;;;;;15.89;52.62;102029.88;5069318;28;45190;-67
2022/09/21 01:11:53;;;;;;;;;8.00;6.00;;;;;15.87;53.00;102024.47;5064482;28;45193;-68
2022/09/21 01:14:19;;;;;;;;;4.67;4.00;;;;;15.86;53.27;102033.44;5072068;28;45190;-67
2022/09/21 01:16:52;;;;;;;;;4.33;4.33;;;;;15.85;53.14;102023.50;5069526;28;45240;-67
2022/09/21 01:19:45;;;;;;;;;8.67;6.00;;;;;15.87;53.24;102031.63;5072260;28;45038;-66
2022/09/21 01:22:19;;;;;;;;;7.00;6.00;;;;;15.88;53.64;102033.47;5071164;28;45150;-69
2022/09/21 01:25:01;;;;;;;;;8.50;8.00;;;;;15.84;53.57;102036.09;5062770;28;45175;-70
2022/09/21 01:27:38;;;;;;;;;5.00;5.00;;;;;15.79;54.01;102034.16;5058522;28;46373;-68
2022/09/21 01:30:17;;;;;;;;;11.00;6.00;;;;;15.62;54.36;102009.41;5067941;28;45242;-66
2022/09/21 01:32:55;;;;;;;;;6.67;6.00;;;;;15.71;54.36;102033.91;5080984;28;45529;-66
2022/09/21 01:35:39;;;;;;;;;7.00;5.00;;;;;15.75;53.92;102032.22;5056800;28;45413;-65
2022/09/21 01:38:10;;;;;;;;;7.33;7.00;;;;;15.74;54.37;102044.78;5048420;28;46077;-66
2022/09/21 01:40:40;;;;;;;;;5.67;5.67;;;;;15.68;54.50;102028.44;5055018;28;45453;-65
2022/09/21 01:43:10;;;;;;;;;5.67;5.00;;;;;15.61;54.56;102018.41;5055045;28;45635;-69
2022/09/21 01:45:39;;;;;;;;;9.25;7.25;;;;;15.71;54.44;102038.41;5068824;28;45270;-68
2022/09/21 01:48:07;;;;;;;;;5.75;5.75;;;;;15.64;54.61;102031.91;5070818;28;45270;-67
2022/09/21 01:50:39;;;;;;;;;3.00;3.00;;;;;15.70;54.48;102044.66;5071744;28;45296;-66
2022/09/21 01:53:18;;;;;;;;;5.00;5.00;;;;;15.69;54.75;102034.75;5070427;28;45122;-66
2022/09/21 01:55:50;;;;;;;;;9.33;6.33;;;;;15.47;54.61;102001.84;5072378;28;45205;-66
2022/09/21 01:58:23;;;;;;;;;6.50;5.50;;;;;15.67;54.43;102040.09;5074174;28;46090;-66
2022/09/21 02:00:55;;;;;;;;;6.75;6.75;;;;;15.58;54.17;102026.41;5074740;28;44983;-67
2022/09/21 02:03:31;;;;;;;;;5.33;5.33;;;;;15.65;54.50;102039.13;5067693;28;45104;-67
2022/09/21 02:05:59;;;;;;;;;4.33;4.00;;;;;15.64;54.72;102038.25;5074082;28;45207;-71
2022/09/21 02:08:25;;;;;;;;;3.33;3.33;;;;;15.53;54.46;102019.97;5065324;28;45348;-65
2022/09/21 02:10:52;;;;;;;;;5.00;5.00;;;;;15.60;54.64;102039.00;5073991;28;45051;-67
2022/09/21 02:13:19;;;;;;;;;7.50;6.00;;;;;15.61;54.95;102050.72;5074816;28;45079;-74
2022/09/21 02:16:06;;;;;;;;;8.25;5.75;;;;;15.60;55.06;102041.72;5074276;28;45237;-72
2022/09/21 02:19:01;;;;;;;;;5.50;5.50;;;;;15.60;54.91;102043.50;5068739;28;46012;-75
2022/09/21 02:21:39;;;;;;;;;5.75;5.75;;;;;15.57;54.52;102047.00;5049891;28;45424;-67
2022/09/21 02:24:31;;;;;;;;;8.50;6.00;;;;;15.57;54.88;102038.03;5051447;28;45432;-66
2022/09/21 02:26:56;;;;;;;;;4.67;4.67;;;;;15.53;54.74;102045.13;5054719;28;45115;-67
2022/09/21 02:29:32;;;;;;;;;5.00;5.00;;;;;15.40;54.93;102016.03;5064198;28;50941;-67
2022/09/21 02:32:16;;;;;;;;;6.33;5.00;;;;;15.47;55.05;102029.69;5081252;28;45425;-68
2022/09/21 02:34:46;;;;;;;;;6.00;5.67;;;;;15.54;55.14;102029.88;5074301;28;45081;-71
2022/09/21 02:37:30;;;;;;;;;5.67;3.67;;;;;15.50;55.11;102033.38;5074278;28;45129;-67
2022/09/21 02:40:01;;;;;;;;;6.00;5.00;;;;;15.51;54.88;102036.09;5073875;28;46148;-70
2022/09/21 02:42:35;;;;;;;;;4.00;4.00;;;;;14.98;55.02;101941.31;5073503;28;45082;-67
2022/09/21 02:45:08;;;;;;;;;7.33;6.33;;;;;15.52;54.91;102034.31;5074088;28;44961;-69
2022/09/21 02:47:59;;;;;;;;;8.50;8.50;;;;;15.46;54.99;102016.22;5074434;28;45400;-66
2022/09/21 02:50:40;;;;;;;;;8.50;7.25;;;;;15.48;55.20;102022.53;5063735;28;45784;-66
2022/09/21 02:53:08;;;;;;;;;7.00;5.75;;;;;15.45;55.14;102023.34;5056201;28;45678;-66
2022/09/21 02:55:34;;;;;;;;;7.00;5.50;;;;;15.36;55.08;102008.72;5055351;28;45430;-68
2022/09/21 02:58:04;;;;;;;;;4.33;4.33;;;;;15.43;55.43;102019.72;5065372;28;45271;-66
2022/09/21 03:00:30;;;;;;;;;9.00;8.50;;;;;15.31;55.31;101995.16;5079788;28;46280;-66
2022/09/21 03:02:55;;;;;;;;;6.25;5.00;;;;;15.44;55.47;102020.63;5062117;28;45252;-67
2022/09/21 03:05:20;;;;;;;;;8.00;6.25;;;;;15.40;55.33;102022.31;5055496;28;45411;-68
2022/09/21 03:07:46;;;;;;;;;7.00;7.00;;;;;15.26;55.13;102000.44;5062082;28;45456;-66
2022/09/21 03:10:11;;;;;;;;;9.00;7.25;;;;;15.29;55.58;102005.91;5069967;28;65465;-75
2022/09/21 03:12:37;;;;;;;;;9.00;7.50;;;;;15.35;55.61;102020.41;5072843;28;61896;-70
2022/09/21 03:15:03;;;;;;;;;7.75;5.75;;;;;15.34;55.67;102018.56;5070120;28;45202;-74
2022/09/21 03:17:28;;;;;;;;;40.25;35.00;;;;;15.28;55.51;102016.63;5058001;28;45378;-70
2022/09/21 03:19:54;;;;;;;;;12.00;9.75;;;;;15.34;55.22;102024.84;5068812;28;46037;-67
2022/09/21 03:22:21;;;;;;;;;5.25;5.25;;;;;15.33;55.82;102027.50;5071436;28;45086;-66
2022/09/21 03:24:46;;;;;;;;;5.50;4.00;;;;;15.28;55.86;102025.59;5062369;28;45625;-73
2022/09/21 03:27:13;;;;;;;;;7.00;7.00;;;;;15.27;55.75;102020.19;5051743;28;45418;-66
2022/09/21 03:29:39;;;;;;;;;7.00;7.00;;;;;15.22;56.19;102027.22;5061055;28;45763;-70
2022/09/21 03:32:04;;;;;;;;;5.75;5.00;;;;;15.19;55.98;102028.03;5063203;28;45473;-66
2022/09/21 03:34:33;;;;;;;;;7.33;5.67;;;;;15.11;56.06;102013.44;5061018;28;45717;-65
2022/09/21 03:37:05;;;;;;;;;5.00;5.00;;;;;15.18;55.98;102042.38;5066511;28;45655;-66
2022/09/21 03:39:31;;;;;;;;;6.67;5.67;;;;;15.17;56.17;102032.47;5058920;28;45652;-66
2022/09/21 03:41:56;;;;;;;;;6.33;6.00;;;;;15.09;56.09;102018.78;5068714;28;45665;-66
2022/09/21 03:44:23;;;;;;;;;10.25;8.00;;;;;15.12;55.86;102012.59;5072474;28;45422;-74
2022/09/21 03:46:49;;;;;;;;;4.00;4.00;;;;;15.16;56.17;102022.56;5070557;28;44964;-66
2022/09/21 03:49:15;;;;;;;;;5.00;3.33;;;;;15.10;56.12;102012.53;5069001;28;46692;-67
2022/09/21 03:51:40;;;;;;;;;6.33;6.00;;;;;15.14;56.23;102036.84;5069640;28;45101;-72
2022/09/21 03:54:05;;;;;;;;;7.67;6.00;;;;;14.66;56.28;101949.38;5067325;28;45390;-70
2022/09/21 03:56:31;;;;;;;;;8.00;8.00;;;;;15.06;56.26;102016.03;5070918;28;45056;-67
2022/09/21 03:58:56;;;;;;;;;9.67;6.33;;;;;15.12;56.24;102034.13;5069533;28;45572;-66
2022/09/21 04:01:21;;;;;;;;;6.33;6.33;;;;;15.09;56.75;102037.63;5068026;28;46124;-67
2022/09/21 04:03:47;;;;;;;;;13.00;7.75;;;;;15.09;56.16;102026.84;5070884;28;45151;-67
2022/09/21 04:06:13;;;;;;;;;8.50;5.25;;;;;15.06;56.32;102025.88;5070776;28;45043;-70
2022/09/21 04:08:39;;;;;;;;;10.67;6.67;;;;;14.94;56.24;102002.22;5069209;28;45760;-68
2022/09/21 04:11:16;;;;;;;;;7.75;6.75;;;;;15.05;56.39;102022.28;5068250;28;45719;-66
2022/09/21 04:13:42;;;;;;;;;7.50;6.50;;;;;14.98;56.20;102016.66;5069396;28;45118;-68
2022/09/21 04:16:08;;;;;;;;;6.33;5.33;;;;;14.99;56.41;102026.56;5067694;28;45279;-71
2022/09/21 04:18:34;;;;;;;;;7.00;7.00;;;;;14.90;56.84;102021.84;5067278;28;45246;-68
2022/09/21 04:21:00;;;;;;;;;6.75;4.75;;;;;14.76;57.16;102010.66;5069418;28;45035;-67
2022/09/21 04:23:26;;;;;;;;;6.50;5.50;;;;;14.80;56.99;102014.34;5070164;28;45198;-66
2022/09/21 04:25:53;;;;;;;;;9.00;6.75;;;;;14.82;57.12;102023.41;5068581;28;45267;-67
2022/09/21 04:28:19;;;;;;;;;7.00;6.00;;;;;14.47;57.25;101962.28;5069254;28;46703;-64
2022/09/21 04:30:44;;;;;;;;;4.00;4.00;;;;;14.79;57.23;102017.91;5070677;28;45124;-67
2022/09/21 04:33:09;;;;;;;;;6.33;6.00;;;;;14.78;57.07;102027.75;5070162;28;47155;-69
2022/09/21 04:35:34;;;;;;;;;8.00;7.75;;;;;14.80;56.94;102027.78;5070475;28;45236;-65
2022/09/21 04:38:00;;;;;;;;;5.00;5.00;;;;;14.63;57.13;101992.34;5066591;28;45228;-67
2022/09/21 04:40:26;;;;;;;;;10.00;7.33;;;;;14.80;57.12;102025.09;5069256;28;45193;-64
2022/09/21 04:42:52;;;;;;;;;6.50;6.50;;;;;14.57;57.37;101985.88;5070353;28;45007;-66
2022/09/21 04:45:19;;;;;;;;;11.50;10.00;;;;;14.57;56.83;101987.66;5069027;28;45248;-69
2022/09/21 04:47:44;;;;;;;;;6.25;5.25;;;;;14.29;57.15;101937.53;5066726;28;45720;-67
2022/09/21 04:50:10;;;;;;;;;7.00;5.50;;;;;14.80;57.29;102026.03;5068916;28;44968;-65
2022/09/21 04:52:35;;;;;;;;;8.25;6.75;;;;;14.78;57.10;102027.75;5065414;28;45493;-70
2022/09/21 04:55:01;;;;;;;;;11.75;6.00;;;;;14.41;57.40;101963.88;5068816;28;45538;-67
2022/09/21 04:57:27;;;;;;;;;7.75;7.75;;;;;14.72;57.77;102036.56;5067376;28;45688;-65
2022/09/21 04:59:52;;;;;;;;;9.00;7.75;;;;;14.72;57.65;102033.88;5068513;28;45059;-65
2022/09/21 05:02:17;;;;;;;;;11.50;7.50;;;;;14.72;57.28;102032.97;5068019;28;45241;-67
2022/09/21 05:04:43;;;;;;;;;7.00;6.00;;;;;14.68;57.96;102033.72;5069209;28;45261;-68
2022/09/21 05:07:08;;;;;;;;;9.75;7.75;;;;;14.70;57.54;102034.69;5068415;28;45606;-69
2022/09/21 05:12:17;;;;;;;;;7.00;7.00;;;;;14.22;57.34;101952.53;5071103;28;45126;-66
2022/09/21 05:14:43;;;;;;;;;9.50;8.00;;;;;14.71;57.92;102033.81;5072217;28;45088;-67
2022/09/21 05:17:09;;;;;;;;;9.00;8.00;;;;;14.65;57.22;102018.44;5070215;28;45493;-67
2022/09/21 05:19:34;;;;;;;;;6.00;6.00;;;;;14.40;57.44;101967.41;5070518;28;45059;-69
2022/09/21 05:22:00;;;;;;;;;6.00;5.00;;;;;14.68;57.57;102025.66;5068986;28;45083;-69
2022/09/21 05:24:25;;;;;;;;;13.00;12.00;;;;;14.64;57.48;102019.28;5071547;28;45105;-74
2022/09/21 05:26:51;;;;;;;;;12.00;10.75;;;;;14.69;57.13;102020.31;5064388;28;45770;-68
2022/09/21 05:29:16;;;;;;;;;13.50;12.75;;;;;14.70;57.60;102029.28;5066534;28;45458;-76
2022/09/21 05:31:47;;;;;;;;;10.75;8.50;;;;;14.72;57.44;102038.34;5073999;28;45086;-67
2022/09/21 05:34:32;;;;;;;;;7.00;7.00;;;;;14.71;57.26;102036.50;5073812;28;45437;-68
2022/09/21 05:37:05;;;;;;;;;12.50;11.75;;;;;14.69;57.97;102032.88;5072798;28;45036;-67
2022/09/21 05:39:30;;;;;;;;;10.00;8.75;;;;;14.67;57.83;102027.44;5073318;28;45024;-77
2022/09/21 05:41:56;;;;;;;;;9.75;8.00;;;;;14.59;58.16;102034.38;5073532;28;45076;-71
2022/09/21 05:44:22;;;;;;;;;7.75;7.75;;;;;14.54;58.32;102036.88;5071907;28;45003;-75
2022/09/21 05:46:52;;;;;;;;;7.00;7.00;;;;;14.35;58.46;102004.91;5072211;28;45554;-73
2022/09/21 05:49:32;;;;;;;;;9.00;7.00;;;;;14.45;58.23;102036.59;5065577;28;45403;-76
2022/09/21 05:52:08;;;;;;;;;14.75;8.25;;;;;14.46;58.35;102037.50;5072240;28;45120;-69
2022/09/21 05:54:42;;;;;;;;;9.25;9.25;;;;;14.50;58.44;102034.03;5072656;28;45240;-69
2022/09/21 05:57:45;;;;;;;;;29.25;22.50;;;;;14.53;58.23;102036.81;5071361;28;45554;-75
2022/09/21 06:00:13;;;;;;;;;15.00;13.25;;;;;14.58;58.29;102035.19;5048741;28;45098;-76
2022/09/21 06:02:54;;;;;;;;;11.25;9.25;;;;;14.53;58.07;102035.03;5063681;28;45553;-68
2022/09/21 06:05:20;;;;;;;;;20.00;17.00;;;;;14.48;57.99;102027.72;5071699;28;45367;-67
2022/09/21 06:07:45;;;;;;;;;22.25;19.75;;;;;14.54;57.92;102041.34;5070967;28;45523;-72
2022/09/21 06:10:12;;;;;;;;;10.00;10.00;;;;;14.54;58.15;102033.28;5071380;28;45149;-74
2022/09/21 06:12:38;;;;;;;;;31.50;29.50;;;;;14.52;58.00;102035.94;5070440;28;45098;-67
2022/09/21 06:15:06;;;;;;;;;11.75;10.50;;;;;14.48;58.68;102027.72;5087319;27;45403;-79
2022/09/21 06:17:32;;;;;;;;;10.25;8.25;;;;;14.47;58.63;102036.63;5073431;28;45092;-80
2022/09/21 06:19:57;;;;;;;;;8.75;8.25;;;;;14.35;58.64;102040.78;5072195;28;45115;-80
2022/09/21 06:22:22;;;;;;;;;8.75;8.00;;;;;14.39;58.95;102044.47;5062971;28;45295;-73
2022/09/21 06:24:48;;;;;;;;;10.75;9.00;;;;;14.44;58.63;102042.84;5068608;28;45050;-79
2022/09/21 06:27:13;;;;;;;;;12.25;10.25;;;;;14.42;58.44;102028.44;5086959;27;46181;-73
2022/09/21 06:29:38;;;;;;;;;16.00;15.25;;;;;14.54;58.44;102044.94;5068807;28;61623;-73
2022/09/21 06:32:04;;;;;;;;;18.75;14.50;;;;;14.54;58.42;102046.72;5071033;28;51348;-72
2022/09/21 06:34:29;;;;;;;;;14.25;13.25;;;;;14.37;58.74;102022.91;5072408;28;45162;-73
2022/09/21 06:36:55;;;;;;;;;18.75;17.50;;;;;14.19;58.22;101977.56;5071484;28;46254;-74
2022/09/21 06:39:20;;;;;;;;;10.25;8.50;;;;;14.56;58.31;102040.50;5070860;28;45151;-71
2022/09/21 06:41:45;;;;;;;;;12.50;10.75;;;;;14.52;58.47;102045.78;5066311;28;45516;-69
2022/09/21 06:44:11;;;;;;;;;12.50;12.00;;;;;14.45;58.21;102044.69;5070671;28;51241;-78
2022/09/21 06:46:36;;;;;;;;;14.25;12.25;;;;;14.49;58.32;102048.38;5067522;28;45033;-71
2022/09/21 06:49:02;;;;;;;;;15.75;14.50;;;;;14.50;58.61;102045.72;5058727;28;45560;-71
2022/09/21 06:51:27;;;;;;;;;13.50;9.75;;;;;14.39;58.57;102022.97;5061792;28;45461;-76
2022/09/21 06:53:57;;;;;;;;;15.00;12.50;;;;;14.37;58.66;102022.00;5071002;28;45608;-75
2022/09/21 06:56:23;;;;;;;;;13.25;12.25;;;;;14.59;58.33;102057.63;5071578;28;45565;-68
2022/09/21 06:58:49;;;;;;;;;13.50;12.75;;;;;14.59;58.11;102041.50;5072348;28;44957;-71
2022/09/21 07:01:15;;;;;;;;;18.75;17.75;;;;;14.19;58.09;101965.91;5073045;28;45197;-73
2022/09/21 07:03:41;;;;;;;;;17.00;13.00;;;;;14.67;57.72;102040.00;5072545;28;45258;-67
2022/09/21 07:06:10;;;;;;;;;19.75;16.75;;;;;14.69;57.93;102052.59;5073588;28;45692;-72
2022/09/21 07:08:35;;;;;;;;;14.50;11.75;;;;;14.62;58.11;102053.28;5072445;28;45080;-74
2022/09/21 07:11:04;;;;;;;;;18.50;15.25;;;;;14.60;58.26;102035.28;5070533;28;45236;-76
2022/09/21 07:13:29;;;;;;;;;13.50;11.75;;;;;14.43;57.72;101997.06;5057970;28;45281;-76
2022/09/21 07:15:54;;;;;;;;;20.25;17.25;;;;;14.67;58.08;102034.59;5067186;28;45501;-74
2022/09/21 07:18:20;;;;;;;;;13.25;12.00;;;;;14.79;57.83;102047.50;5063913;28;52857;-73
2022/09/21 07:20:48;;;;;;;;;17.25;17.25;;;;;14.87;57.61;102038.78;5070551;28;45149;-70
2022/09/21 07:23:18;;;;;;;;;15.25;11.50;;;;;14.93;57.47;102047.06;5068388;28;45531;-72
2022/09/21 07:25:45;;;;;;;;;19.25;16.50;;;;;14.88;57.49;102013.72;5069764;28;45212;-73
2022/09/21 07:28:12;;;;;;;;;25.75;23.75;;;;;15.07;56.90;102038.47;5069142;28;45094;-74
2022/09/21 07:30:40;;;;;;;;;19.75;17.25;;;;;14.82;56.89;101997.38;5069918;28;45234;-71
2022/09/21 07:33:06;;;;;;;;;18.75;14.75;;;;;14.70;56.60;101978.19;5064773;28;45481;-73
2022/09/21 07:35:31;;;;;;;;;16.50;13.50;;;;;15.03;57.01;102028.47;5069565;28;47104;-72
2022/09/21 07:37:58;;;;;;;;;15.25;14.50;;;;;14.98;56.77;102003.19;5071572;28;45071;-73
2022/09/21 07:40:24;;;;;;;;;25.50;23.00;;;;;15.27;56.71;102039.03;5070039;28;45073;-71
2022/09/21 07:42:49;;;;;;;;;16.25;14.50;;;;;15.27;56.38;102022.88;5068253;28;45135;-70
2022/09/21 07:45:14;;;;;;;;;15.00;13.00;;;;;15.03;56.33;101974.63;5065708;28;50438;-69
2022/09/21 07:47:40;;;;;;;;;21.50;17.00;;;;;15.45;56.17;102035.91;5056224;28;45398;-72
2022/09/21 07:50:05;;;;;;;;;17.00;14.50;;;;;15.30;56.08;102007.69;5048199;28;45580;-74
2022/09/21 07:52:31;;;;;;;;;37.00;30.00;;;;;15.53;56.00;102028.97;5051364;28;45548;-71
2022/09/21 07:54:56;;;;;;;;;15.25;14.25;;;;;15.57;55.50;102020.06;5053094;28;47549;-74
2022/09/21 08:00:05;;;;;;;;;19.00;17.50;;;;;15.51;55.51;102001.09;5050820;28;45478;-69
2022/09/21 08:02:31;;;;;;;;;18.50;17.00;;;;;15.70;55.48;102017.72;5052822;28;45455;-73
2022/09/21 08:04:56;;;;;;;;;17.25;13.25;;;;;15.25;54.69;101936.66;5063657;27;48055;-69
2022/09/21 08:07:22;;;;;;;;;14.25;14.00;;;;;15.75;54.81;102021.44;5051051;28;46296;-69
2022/09/21 08:09:49;;;;;;;;;17.50;13.50;;;;;15.77;54.77;102025.09;5049745;28;45531;-71
2022/09/21 08:12:17;;;;;;;;;20.25;16.50;;;;;15.13;55.10;101913.88;5051971;28;45483;-75
2022/09/21 08:14:43;;;;;;;;;12.50;11.00;;;;;15.86;54.41;102028.03;5051268;28;45455;-71
2022/09/21 08:17:08;;;;;;;;;18.25;15.00;;;;;15.92;54.40;102028.22;5052795;28;45609;-72
2022/09/21 08:19:35;;;;;;;;;17.50;16.50;;;;;15.86;53.92;102003.78;5066172;27;45547;-73
2022/09/21 08:22:00;;;;;;;;;21.75;14.50;;;;;16.00;54.05;102018.53;5051964;28;45397;-75
2022/09/21 08:24:26;;;;;;;;;17.75;14.00;;;;;15.97;53.66;102007.66;5050798;28;45399;-72
2022/09/21 08:26:51;;;;;;;;;15.75;13.25;;;;;16.06;53.86;102017.75;5056677;28;54230;-73
2022/09/21 08:29:17;;;;;;;;;13.67;13.67;;;;;16.09;53.73;102019.63;5067672;27;47264;-74
2022/09/21 08:31:42;;;;;;;;;26.75;22.00;;;;;16.23;53.34;102031.63;5055433;28;45550;-72
2022/09/21 08:34:08;;;;;;;;;15.75;15.00;;;;;16.13;53.33;102000.84;5056025;28;46860;-69
2022/09/21 08:36:33;;;;;;;;;13.25;12.75;;;;;16.26;53.20;102034.41;5055073;28;45617;-68
2022/09/21 08:38:58;;;;;;;;;16.50;14.25;;;;;16.23;53.27;102030.72;5070394;28;45387;-70
2022/09/21 08:41:58;;;;;;;;;16.50;12.50;;;;;15.92;53.23;101963.53;5053390;28;46107;-74
2022/09/21 08:44:32;;;;;;;;;14.50;14.50;;;;;16.35;52.62;102028.28;5053152;28;46105;-72
2022/09/21 08:47:20;;;;;;;;;14.75;13.75;;;;;16.09;52.46;101981.88;5052898;28;45509;-70
2022/09/21 08:49:52;;;;;;;;;21.75;18.25;;;;;16.44;53.05;102023.13;5052952;28;45320;-69
2022/09/21 08:52:20;;;;;;;;;16.25;14.75;;;;;16.54;52.32;102018.84;5052792;28;45990;-70
2022/09/21 08:55:00;;;;;;;;;24.25;17.50;;;;;16.68;52.60;102030.88;5054430;28;45765;-70
2022/09/21 08:57:29;;;;;;;;;16.25;15.50;;;;;16.55;51.96;101989.22;5052971;28;45393;-69
2022/09/21 08:59:55;;;;;;;;;16.00;14.25;;;;;16.88;52.29;102027.72;5052361;28;45362;-70
2022/09/21 09:02:57;;;;;;;;;20.00;18.50;;;;;17.00;51.64;102027.97;5052834;28;45557;-72
2022/09/21 09:05:31;;;;;;;;;14.00;14.00;;;;;17.11;51.26;102018.28;5049955;28;45482;-70
2022/09/21 09:07:58;;;;;;;;;14.00;9.00;;;;;17.18;50.79;102026.53;5056375;28;45405;-71
2022/09/21 09:10:54;;;;;;;;;11.33;9.67;;;;;17.30;50.40;102029.44;5053534;28;46268;-71
2022/09/21 09:13:35;;;;;;;;;9.00;8.00;;;;;17.32;49.77;102030.38;5066221;28;45212;-71
2022/09/21 09:16:25;;;;;;;;;11.67;10.33;;;;;17.37;49.20;102031.38;5051602;28;45729;-69
2022/09/21 09:19:01;;;;;;;;;9.00;9.00;;;;;17.31;49.11;101996.16;5049193;28;45288;-68
2022/09/21 09:21:34;;;;;;;;;24.33;11.33;;;;;17.43;49.74;102007.19;5058364;28;45501;-69
2022/09/21 09:24:13;;;;;;;;;11.67;11.00;;;;;17.65;49.49;102016.59;5055130;28;45789;-68
2022/09/21 09:26:43;;;;;;;;;10.67;9.00;;;;;17.85;49.00;102025.03;5043922;28;46296;-69
2022/09/21 09:29:27;;;;;;;;;7.00;7.00;;;;;17.75;48.04;102001.44;5056031;28;45413;-68
2022/09/21 09:31:54;;;;;;;;;14.67;8.33;;;;;17.95;47.87;102019.81;5056535;28;45368;-68
2022/09/21 09:34:30;;;;;;;;;16.00;12.00;;;;;18.08;47.58;102024.53;5056339;28;45694;-68
2022/09/21 09:36:58;;;;;;;;;8.33;8.33;;;;;18.15;46.68;102018.34;5056139;28;46149;-68
2022/09/21 09:39:25;;;;;;;;;17.00;15.33;;;;;18.26;46.79;102018.50;5058795;28;45643;-68
2022/09/21 09:42:09;;;;;;;;;8.67;7.67;;;;;18.38;46.39;102017.78;5072679;28;45069;-68
2022/09/21 09:44:46;;;;;;;;;7.33;6.33;;;;;18.72;45.53;102018.22;5071304;28;45270;-68
2022/09/21 09:47:50;;;;;;;;;9.00;8.00;;;;;19.07;44.63;102012.38;5073214;28;45580;-71
2022/09/21 09:50:28;;;;;;;;;6.67;5.00;;;;;19.11;44.31;101987.16;5055192;28;47392;-68
2022/09/21 09:53:03;;;;;;;;;9.00;7.33;;;;;18.87;43.58;101911.94;5055283;28;45559;-69
2022/09/21 09:55:36;;;;;;;;;6.00;5.00;;;;;19.31;43.31;101965.69;5071156;27;45474;-69
2022/09/21 09:58:03;;;;;;;;;9.00;7.67;;;;;19.37;42.75;101964.81;5054928;28;45884;-72
2022/09/21 10:00:28;;;;;;;;;13.00;8.00;;;;;19.52;42.33;101997.50;5054246;28;45372;-67
2022/09/21 10:02:56;;;;;;;;;9.33;6.67;;;;;19.64;42.78;102007.56;5064619;27;54254;-70
2022/09/21 10:05:29;;;;;;;;;5.67;4.33;;;;;19.63;41.99;102013.84;5064715;28;45472;-70
2022/09/21 10:07:55;;;;;;;;;8.67;8.67;;;;;19.47;41.80;101972.16;5053706;28;45593;-70
2022/09/21 10:10:31;;;;;;;;;8.33;8.33;;;;;19.68;42.07;102009.38;5052592;28;45404;-71
2022/09/21 10:13:15;;;;;;;;;13.00;10.33;;;;;19.70;41.87;102005.81;5069672;28;45572;-70
2022/09/21 10:15:49;;;;;;;;;8.33;5.67;;;;;19.64;42.46;101989.47;5060405;28;45381;-70
2022/09/21 10:18:36;;;;;;;;;7.00;5.00;;;;;19.71;41.80;101998.56;5054026;28;45621;-70
2022/09/21 10:21:08;;;;;;;;;5.67;5.00;;;;;19.61;41.37;101967.75;5056566;28;45781;-69
2022/09/21 10:23:36;;;;;;;;;7.33;6.33;;;;;19.83;41.45;101995.06;5055159;28;45496;-70
2022/09/21 10:26:12;;;;;;;;;3.00;3.00;;;;;19.70;40.86;101977.78;5055060;28;45483;-72
2022/09/21 10:28:58;;;;;;;;;18.33;14.00;;;;;19.86;41.51;101998.75;5054668;28;46675;-74
2022/09/21 10:31:25;;;;;;;;;6.33;5.00;;;;;19.99;41.27;101997.00;5049294;28;45464;-69
2022/09/21 10:33:59;;;;;;;;;11.33;9.00;;;;;19.77;41.45;101954.38;5054901;28;45361;-70
2022/09/21 10:36:27;;;;;;;;;6.33;3.67;;;;;20.01;41.42;101989.81;5054988;28;45472;-70
2022/09/21 10:38:53;;;;;;;;;6.67;6.00;;;;;19.75;41.49;101951.66;5052883;28;46379;-70
2022/09/21 10:41:18;;;;;;;;;4.67;4.67;;;;;19.76;41.48;101953.44;5069570;28;45393;-74
2022/09/21 10:43:44;;;;;;;;;11.33;9.67;;;;;19.80;41.20;101973.34;5054637;28;45590;-72
2022/09/21 10:46:10;;;;;;;;;6.33;6.00;;;;;19.73;41.15;101968.75;5053669;28;45611;-73
2022/09/21 10:48:36;;;;;;;;;55.25;43.00;;;;;19.33;41.34;101925.94;5054608;28;46526;-70
2022/09/21 10:51:03;;;;;;;;;7.00;5.67;;;;;19.47;41.42;101985.72;5054775;28;45715;-73
2022/09/21 10:53:31;;;;;;;;;10.33;8.33;;;;;19.16;41.67;101939.34;5050700;28;45587;-71
2022/09/21 10:56:02;;;;;;;;;8.33;6.00;;;;;19.40;41.98;101979.34;5068893;27;45604;-72
2022/09/21 10:58:28;;;;;;;;;9.67;5.33;;;;;19.18;41.66;101942.06;5049052;28;45405;-72
2022/09/21 11:00:55;;;;;;;;;5.00;5.00;;;;;19.30;41.19;101961.13;5052779;28;45532;-69
2022/09/21 11:03:29;;;;;;;;;5.67;4.33;;;;;19.31;41.28;101950.31;5053464;28;45577;-71
2022/09/21 11:06:03;;;;;;;;;39.50;29.50;;;;;19.37;40.85;101949.50;5069020;27;45541;-70
2022/09/21 11:08:41;;;;;;;;;6.67;5.67;;;;;19.55;40.81;101969.50;5054406;28;45804;-74
2022/09/21 11:11:23;;;;;;;;;13.33;11.00;;;;;19.21;40.78;101883.41;5054084;28;45298;-72
2022/09/21 11:14:15;;;;;;;;;4.67;4.67;;;;;19.75;40.00;101959.78;5054268;28;45690;-68
2022/09/21 11:16:50;;;;;;;;;4.67;4.67;;;;;19.63;39.28;101928.03;5061019;28;45560;-70
2022/09/21 11:19:33;;;;;;;;;6.67;5.33;;;;;19.60;39.36;101906.31;5070824;28;46113;-74
2022/09/21 11:22:20;;;;;;;;;5.33;4.00;;;;;19.94;38.89;101940.94;5054828;28;45425;-71
2022/09/21 11:25:01;;;;;;;;;4.33;4.33;;;;;20.12;38.53;101954.59;5066641;27;45574;-71
2022/09/21 11:27:35;;;;;;;;;5.00;5.00;;;;;19.78;38.71;101881.16;5050276;28;45477;-73
2022/09/21 11:30:18;;;;;;;;;5.33;3.00;;;;;20.10;37.79;101915.72;5053258;28;45603;-69
2022/09/21 11:33:01;;;;;;;;;20.67;12.00;;;;;20.29;38.03;101954.69;5047190;28;45462;-71
2022/09/21 11:36:05;;;;;;;;;5.67;3.00;;;;;20.29;37.17;101942.94;5047018;28;45423;-72
2022/09/21 11:38:42;;;;;;;;;3.00;3.00;;;;;20.19;37.49;101947.41;4970575;28;45488;-69
2022/09/21 11:41:27;;;;;;;;;5.00;5.00;;;;;20.15;37.57;101937.44;5041043;28;45613;-70